createdAt,value
2022-08-07T00:00:28.005Z,34.47
2022-08-07T00:02:56.013Z,33.35
2022-08-07T00:05:24.060Z,32.08
2022-08-07T00:08:00.290Z,39.20
2022-08-07T00:10:31.015Z,30.77
2022-08-07T00:13:03.177Z,29.98
2022-08-07T00:15:50.986Z,26.20
2022-08-07T00:18:24.161Z,26.92
2022-08-07T00:20:53.422Z,22.98
2022-08-07T00:23:22.067Z,23.63
2022-08-07T00:25:52.080Z,21.58
2022-08-07T00:28:31.532Z,20.20
2022-08-07T00:31:05.892Z,21.55
2022-08-07T00:33:34.540Z,22.33
2022-08-07T00:36:03.595Z,20.70
2022-08-07T00:38:33.218Z,18.67
2022-08-07T00:41:01.555Z,16.13
2022-08-07T00:44:01.339Z,16.45
2022-08-07T00:46:18.106Z,17.25
2022-08-07T00:48:45.615Z,17.50
2022-08-07T00:51:17.767Z,15.18
2022-08-07T00:53:55.013Z,14.38
2022-08-07T00:56:30.242Z,12.32
2022-08-07T00:59:01.796Z,15.45
2022-08-07T01:01:43.988Z,12.23
2022-08-07T01:04:12.223Z,11.13
2022-08-07T01:06:52.489Z,10.75
2022-08-07T01:10:03.972Z,12.30
2022-08-07T01:12:30.091Z,13.93
2022-08-07T01:15:01.401Z,13.77
2022-08-07T01:17:33.507Z,15.27
2022-08-07T01:20:06.570Z,13.45
2022-08-07T01:22:37.789Z,13.10
2022-08-07T01:25:53.806Z,17.10
2022-08-07T01:28:02.440Z,17.33
2022-08-07T01:30:31.296Z,19.45
2022-08-07T01:32:59.060Z,18.58
2022-08-07T01:35:53.629Z,20.15
2022-08-07T01:38:24.972Z,19.77
2022-08-07T01:40:55.739Z,17.60
2022-08-07T01:43:26.051Z,19.27
2022-08-07T01:45:54.769Z,23.00
2022-08-07T01:48:29.833Z,24.73
2022-08-07T01:51:24.708Z,26.58
2022-08-07T01:54:08.541Z,26.83
2022-08-07T01:56:44.369Z,29.70
2022-08-07T01:59:22.667Z,29.40
2022-08-07T02:01:59.866Z,27.40
2022-08-07T02:04:52.642Z,27.90
2022-08-07T02:07:36.215Z,22.77
2022-08-07T02:10:18.365Z,17.83
2022-08-07T02:12:50.234Z,18.08
2022-08-07T02:15:23.248Z,23.42
2022-08-07T02:17:56.545Z,17.75
2022-08-07T02:20:24.880Z,19.13
2022-08-07T02:22:55.065Z,17.58
2022-08-07T02:26:10.705Z,15.43
2022-08-07T02:28:24.481Z,12.93
2022-08-07T02:30:55.937Z,12.40
2022-08-07T02:33:42.157Z,12.32
2022-08-07T02:36:27.133Z,12.57
2022-08-07T02:39:00.308Z,10.85
2022-08-07T02:41:33.596Z,10.68
2022-08-07T02:44:05.587Z,8.88
2022-08-07T02:46:36.778Z,8.85
2022-08-07T02:49:05.327Z,11.05
2022-08-07T02:51:42.847Z,9.65
2022-08-07T02:54:21.535Z,11.45
2022-08-07T02:56:55.837Z,11.63
2022-08-07T02:59:27.482Z,12.15
2022-08-07T03:01:56.443Z,13.30
2022-08-07T03:04:26.535Z,12.23
2022-08-07T03:06:54.917Z,15.45
2022-08-07T03:09:42.078Z,12.63
2022-08-07T03:12:21.998Z,13.60
2022-08-07T03:14:58.306Z,15.02
2022-08-07T03:17:31.050Z,14.63
2022-08-07T03:20:05.466Z,15.75
2022-08-07T03:22:34.712Z,17.58
2022-08-07T03:25:02.884Z,16.63
2022-08-07T03:27:41.984Z,14.07
2022-08-07T03:30:20.431Z,11.82
2022-08-07T03:32:58.892Z,11.73
2022-08-07T03:35:43.757Z,9.18
2022-08-07T03:38:21.426Z,8.95
2022-08-07T03:40:57.979Z,7.85
2022-08-07T03:43:32.466Z,9.00
2022-08-07T03:46:01.863Z,9.82
2022-08-07T03:48:32.843Z,7.75
2022-08-07T03:51:01.549Z,7.95
2022-08-07T03:53:50.019Z,7.32
2022-08-07T03:56:33.106Z,7.22
2022-08-07T03:59:09.283Z,7.55
2022-08-07T04:01:43.488Z,6.10
2022-08-07T04:04:17.429Z,6.90
2022-08-07T04:06:45.714Z,5.45
2022-08-07T04:09:15.473Z,6.65
2022-08-07T04:12:21.538Z,6.50
2022-08-07T04:14:37.101Z,7.93
2022-08-07T04:17:20.079Z,6.40
2022-08-07T04:19:52.170Z,5.88
2022-08-07T04:22:27.404Z,3.70
2022-08-07T04:24:57.970Z,4.20
2022-08-07T04:27:26.428Z,5.00
2022-08-07T04:30:01.687Z,5.28
2022-08-07T04:32:34.612Z,5.18
2022-08-07T04:35:05.624Z,3.47
2022-08-07T04:37:52.807Z,7.95
2022-08-07T04:40:30.178Z,8.55
2022-08-07T04:43:03.621Z,10.40
2022-08-07T04:45:57.917Z,7.65
2022-08-07T04:48:40.607Z,8.40
2022-08-07T04:51:20.263Z,6.60
2022-08-07T04:54:06.174Z,5.38
2022-08-07T04:58:09.704Z,8.50
2022-08-07T05:00:12.874Z,8.40
2022-08-07T05:02:31.384Z,9.60
2022-08-07T05:05:11.931Z,10.85
2022-08-07T05:07:57.782Z,10.00
2022-08-07T05:10:31.621Z,9.70
2022-08-07T05:13:01.895Z,9.82
2022-08-07T05:15:53.547Z,10.43
2022-08-07T05:18:26.538Z,9.43
2022-08-07T05:21:00.237Z,10.27
2022-08-07T05:23:35.576Z,8.52
2022-08-07T05:26:15.498Z,7.40
2022-08-07T05:28:49.966Z,7.65
2022-08-07T05:31:21.045Z,9.55
2022-08-07T05:34:04.383Z,7.32
2022-08-07T05:36:35.763Z,7.63
2022-08-07T05:40:04.875Z,6.47
2022-08-07T05:42:02.473Z,6.50
2022-08-07T05:44:34.658Z,4.18
2022-08-07T05:47:18.013Z,4.70
2022-08-07T05:49:49.725Z,5.47
2022-08-07T05:52:20.242Z,6.57
2022-08-07T05:54:55.360Z,5.70
2022-08-07T05:57:26.380Z,5.13
2022-08-07T05:59:59.214Z,4.90
2022-08-07T06:02:30.717Z,3.15
2022-08-07T06:05:04.098Z,4.50
2022-08-07T06:08:14.073Z,3.78
2022-08-07T06:10:20.320Z,3.28
2022-08-07T06:12:48.242Z,4.53
2022-08-07T06:15:19.661Z,2.85
2022-08-07T06:17:53.597Z,3.28
2022-08-07T06:20:25.522Z,3.17
2022-08-07T06:23:02.226Z,2.70
2022-08-07T06:25:53.961Z,2.13
2022-08-07T06:28:27.245Z,2.83
2022-08-07T06:30:55.396Z,2.67
2022-08-07T06:33:23.531Z,1.95
2022-08-07T06:36:13.299Z,3.20
2022-08-07T06:38:58.778Z,2.90
2022-08-07T06:42:02.122Z,2.58
2022-08-07T06:44:21.251Z,3.00
2022-08-07T06:46:53.816Z,3.25
2022-08-07T06:49:50.693Z,3.20
2022-08-07T06:52:31.615Z,2.60
2022-08-07T06:55:33.100Z,2.88
2022-08-07T06:57:57.104Z,2.83
2022-08-07T07:00:25.914Z,2.30
2022-08-07T07:02:58.075Z,3.10
2022-08-07T07:06:04.074Z,2.60
2022-08-07T07:08:18.926Z,3.72
2022-08-07T07:10:56.385Z,2.55
2022-08-07T07:13:56.672Z,3.63
2022-08-07T07:16:21.272Z,3.08
2022-08-07T07:18:53.071Z,2.00
2022-08-07T07:21:27.304Z,3.10
2022-08-07T07:24:16.747Z,4.10
2022-08-07T07:26:51.756Z,3.38
2022-08-07T07:29:39.390Z,2.88
2022-08-07T07:32:14.442Z,4.60
2022-08-07T07:34:46.293Z,2.60
2022-08-07T07:37:43.878Z,2.65
2022-08-07T07:40:14.677Z,5.10
2022-08-07T07:42:51.018Z,2.72
2022-08-07T07:46:37.035Z,2.28
2022-08-07T07:48:34.797Z,2.10
2022-08-07T07:51:07.818Z,2.30
2022-08-07T07:53:51.574Z,1.92
2022-08-07T07:56:30.183Z,2.05
2022-08-07T07:59:01.718Z,1.95
2022-08-07T08:02:03.732Z,2.10
2022-08-07T08:04:20.079Z,2.15
2022-08-07T08:06:54.407Z,2.08
2022-08-07T08:09:25.345Z,2.50
2022-08-07T08:12:04.902Z,2.30
2022-08-07T08:14:36.424Z,2.10
2022-08-07T08:17:55.952Z,2.20
2022-08-07T08:20:17.596Z,1.80
2022-08-07T08:23:05.112Z,2.25
2022-08-07T08:25:56.238Z,1.85
2022-08-07T08:28:38.503Z,2.30
2022-08-07T08:31:13.826Z,1.70
2022-08-07T08:33:49.837Z,2.22
2022-08-07T08:36:29.660Z,1.90
2022-08-07T08:39:00.063Z,2.30
2022-08-07T08:41:57.587Z,2.65
2022-08-07T08:44:31.721Z,2.88
2022-08-07T08:47:10.019Z,2.30
2022-08-07T08:50:05.224Z,2.10
2022-08-07T08:52:40.744Z,1.73
2022-08-07T08:55:54.784Z,1.73
2022-08-07T08:58:28.499Z,1.85
2022-08-07T09:01:15.352Z,1.90
2022-08-07T09:03:56.950Z,1.60
2022-08-07T09:06:36.783Z,2.42
2022-08-07T09:09:21.159Z,1.80
2022-08-07T09:12:08.949Z,1.77
2022-08-07T09:15:00.383Z,2.03
2022-08-07T09:17:59.012Z,1.80
2022-08-07T09:20:43.720Z,2.15
2022-08-07T09:24:33.476Z,1.63
2022-08-07T09:26:28.215Z,1.80
2022-08-07T09:30:01.135Z,2.10
2022-08-07T09:31:57.717Z,2.08
2022-08-07T09:34:34.095Z,1.60
2022-08-07T09:37:08.262Z,1.60
2022-08-07T09:39:55.365Z,1.80
2022-08-07T09:42:45.491Z,1.67
2022-08-07T09:47:51.946Z,1.55
2022-08-07T09:48:19.116Z,1.33
2022-08-07T09:50:59.831Z,1.70
2022-08-07T09:53:40.526Z,1.50
2022-08-07T09:56:41.778Z,1.48
2022-08-07T09:59:31.075Z,2.70
2022-08-07T10:02:33.214Z,1.63
2022-08-07T10:05:58.288Z,2.10
2022-08-07T10:08:38.488Z,1.50
2022-08-07T10:11:16.820Z,1.80
2022-08-07T10:14:11.309Z,1.42
2022-08-07T10:17:13.412Z,2.10
2022-08-07T10:19:56.408Z,1.50
2022-08-07T10:22:47.024Z,1.83
2022-08-07T10:25:42.071Z,1.52
2022-08-07T10:28:25.024Z,1.63
2022-08-07T10:31:06.096Z,1.75
2022-08-07T10:34:06.111Z,1.58
2022-08-07T10:36:58.306Z,1.50
2022-08-07T10:39:42.233Z,1.77
2022-08-07T10:42:37.173Z,1.85
2022-08-07T10:45:19.451Z,1.40
2022-08-07T10:48:15.503Z,1.38
2022-08-07T10:50:49.843Z,1.30
2022-08-07T10:53:26.398Z,1.50
2022-08-07T10:56:03.511Z,1.85
2022-08-07T10:58:59.331Z,1.60
2022-08-07T11:01:52.159Z,1.40
2022-08-07T11:04:41.754Z,1.55
2022-08-07T11:07:59.491Z,1.40
2022-08-07T11:10:19.952Z,3.88
2022-08-07T11:13:02.152Z,2.35
2022-08-07T11:15:35.210Z,1.20
2022-08-07T11:18:07.026Z,1.58
2022-08-07T11:20:46.997Z,2.10
2022-08-07T11:23:30.764Z,1.50
2022-08-07T11:26:13.294Z,1.50
2022-08-07T11:28:55.242Z,1.70
2022-08-07T11:31:33.355Z,2.70
2022-08-07T11:34:10.269Z,1.65
2022-08-07T11:36:44.611Z,2.03
2022-08-07T11:39:39.745Z,1.50
2022-08-07T11:42:19.223Z,1.42
2022-08-07T11:44:57.535Z,3.15
2022-08-07T11:47:56.225Z,2.35
2022-08-07T11:50:44.685Z,1.40
2022-08-07T11:53:38.030Z,1.60
2022-08-07T11:56:28.885Z,1.40
2022-08-07T12:00:07.794Z,2.35
2022-08-07T12:02:03.678Z,1.90
2022-08-07T12:05:02.943Z,2.55
2022-08-07T12:07:41.865Z,1.67
2022-08-07T12:10:16.696Z,1.80
2022-08-07T12:12:52.506Z,1.60
2022-08-07T12:15:46.714Z,1.67
2022-08-07T12:18:22.276Z,1.63
2022-08-07T12:21:14.942Z,1.63
2022-08-07T12:24:07.102Z,1.50
2022-08-07T12:26:46.696Z,2.33
2022-08-07T12:29:20.381Z,2.22
2022-08-07T12:32:12.754Z,1.60
2022-08-07T12:34:42.622Z,2.00
2022-08-07T12:37:28.562Z,1.80
2022-08-07T12:40:24.201Z,2.00
2022-08-07T12:43:00.578Z,1.70
2022-08-07T12:45:38.340Z,1.35
2022-08-07T12:48:27.474Z,1.50
2022-08-07T12:51:12.912Z,1.80
2022-08-07T12:54:24.012Z,1.40
2022-08-07T12:56:51.070Z,1.80
2022-08-07T12:59:32.973Z,1.85
2022-08-07T13:02:33.754Z,1.67
2022-08-07T13:05:14.881Z,1.80
2022-08-07T13:08:19.292Z,1.40
2022-08-07T13:11:00.892Z,1.60
2022-08-07T13:13:48.337Z,2.35
2022-08-07T13:16:28.026Z,2.75
2022-08-07T13:19:04.049Z,1.90
2022-08-07T13:21:37.617Z,1.70
2022-08-07T13:24:29.367Z,1.70
2022-08-07T13:27:08.228Z,1.77
2022-08-07T13:29:47.006Z,1.75
2022-08-07T13:32:31.376Z,1.70
2022-08-07T13:35:08.794Z,1.70
2022-08-07T13:37:55.544Z,3.10
2022-08-07T13:40:35.322Z,1.90
2022-08-07T13:43:13.850Z,1.70
2022-08-07T13:46:20.710Z,1.40
2022-08-07T13:48:38.688Z,1.90
2022-08-07T13:51:28.374Z,2.40
2022-08-07T13:54:06.144Z,3.08
2022-08-07T13:56:51.709Z,2.90
2022-08-07T13:59:31.115Z,2.25
2022-08-07T14:02:07.680Z,2.10
2022-08-07T14:04:50.167Z,2.10
2022-08-07T14:07:22.969Z,2.00
2022-08-07T14:10:01.229Z,2.13
2022-08-07T14:12:41.770Z,3.20
2022-08-07T14:15:19.242Z,2.20
2022-08-07T14:18:23.917Z,2.00
2022-08-07T14:20:48.906Z,2.67
2022-08-07T14:23:58.557Z,1.55
2022-08-07T14:26:30.129Z,1.80
2022-08-07T14:29:05.986Z,1.65
2022-08-07T14:31:42.339Z,3.83
2022-08-07T14:34:20.044Z,1.80
2022-08-07T14:36:56.212Z,3.85
2022-08-07T14:40:17.709Z,1.60
2022-08-07T14:42:20.777Z,2.03
2022-08-07T14:44:53.778Z,2.08
2022-08-07T14:47:33.877Z,2.55
2022-08-07T14:50:11.316Z,2.20
2022-08-07T14:52:40.369Z,1.80
2022-08-07T14:55:17.405Z,1.52
2022-08-07T14:57:57.838Z,1.98
2022-08-07T15:00:31.001Z,1.73
2022-08-07T15:03:18.976Z,2.50
2022-08-07T15:05:54.756Z,1.90
2022-08-07T15:08:47.462Z,2.20
2022-08-07T15:11:54.194Z,1.80
2022-08-07T15:14:15.572Z,2.10
2022-08-07T15:16:55.086Z,2.90
2022-08-07T15:22:23.063Z,2.20
2022-08-07T15:25:14.956Z,1.90
2022-08-07T15:28:32.825Z,2.58
2022-08-07T15:31:05.115Z,2.08
2022-08-07T15:33:33.619Z,1.90
2022-08-07T15:36:08.478Z,1.70
2022-08-07T15:38:51.637Z,1.85
2022-08-07T15:42:42.616Z,2.35
2022-08-07T15:44:20.450Z,1.90
2022-08-07T15:46:56.383Z,2.47
2022-08-07T15:50:05.553Z,2.30
2022-08-07T15:52:30.490Z,2.00
2022-08-07T15:55:02.581Z,1.90
2022-08-07T15:57:40.338Z,2.22
2022-08-07T16:00:31.620Z,2.05
2022-08-07T16:03:03.972Z,2.20
2022-08-07T16:05:32.329Z,1.88
2022-08-07T16:08:31.786Z,1.98
2022-08-07T16:11:00.297Z,2.40
2022-08-07T16:13:58.765Z,2.60
2022-08-07T16:16:49.396Z,2.20
2022-08-07T16:19:58.883Z,3.28
2022-08-07T16:22:55.301Z,2.58
2022-08-07T16:25:52.578Z,2.95
2022-08-07T16:30:08.245Z,2.30
2022-08-07T16:31:50.875Z,2.20
2022-08-07T16:34:28.114Z,2.13
2022-08-07T16:38:04.209Z,2.38
2022-08-07T16:40:28.315Z,2.08
2022-08-07T16:43:08.578Z,2.00
2022-08-07T16:46:33.640Z,2.30
2022-08-07T16:50:20.518Z,2.00
2022-08-07T16:52:51.908Z,2.10
2022-08-07T16:55:11.465Z,2.25
2022-08-07T16:58:02.575Z,2.17
2022-08-07T17:00:41.484Z,1.98
2022-08-07T17:03:58.503Z,2.42
2022-08-07T17:06:30.662Z,2.80
2022-08-07T17:09:13.847Z,2.17
2022-08-07T17:12:01.340Z,2.53
2022-08-07T17:14:39.090Z,2.72
2022-08-07T17:17:21.546Z,2.05
2022-08-07T17:20:02.908Z,2.50
2022-08-07T17:22:42.753Z,3.03
2022-08-07T17:25:17.029Z,2.78
2022-08-07T17:28:06.956Z,2.15
2022-08-07T17:30:58.136Z,2.22
2022-08-07T17:34:08.545Z,2.20
2022-08-07T17:36:26.065Z,2.00
2022-08-07T17:39:02.292Z,1.83
2022-08-07T17:42:04.732Z,2.20
2022-08-07T17:44:45.407Z,2.15
2022-08-07T17:47:38.145Z,2.60
2022-08-07T17:50:16.733Z,2.08
2022-08-07T17:52:53.260Z,2.78
2022-08-07T17:55:56.590Z,2.45
2022-08-07T17:58:30.588Z,2.08
2022-08-07T18:01:03.827Z,4.70
2022-08-07T18:04:08.043Z,2.47
2022-08-07T18:06:57.894Z,2.08
2022-08-07T18:10:04.630Z,2.10
2022-08-07T18:12:52.436Z,2.78
2022-08-07T18:15:23.818Z,2.22
2022-08-07T18:18:46.614Z,2.25
2022-08-07T18:21:27.485Z,2.03
2022-08-07T18:24:02.142Z,2.10
2022-08-07T18:27:17.475Z,2.20
2022-08-07T18:30:06.129Z,2.13
2022-08-07T18:33:15.603Z,2.97
2022-08-07T18:35:57.251Z,2.83
2022-08-07T18:38:59.367Z,3.50
2022-08-07T18:41:46.324Z,3.03
2022-08-07T18:44:30.344Z,2.80
2022-08-07T18:47:06.488Z,2.70
2022-08-07T18:50:30.516Z,2.40
2022-08-07T18:52:54.280Z,2.67
2022-08-07T18:55:43.365Z,3.00
2022-08-07T18:58:29.555Z,2.92
2022-08-07T19:02:19.153Z,2.72
2022-08-07T19:04:13.929Z,3.67
2022-08-07T19:06:51.407Z,3.00
2022-08-07T19:09:55.637Z,3.08
2022-08-07T19:12:17.898Z,3.50
2022-08-07T19:16:02.909Z,3.38
2022-08-07T19:18:07.461Z,3.63
2022-08-07T19:21:08.583Z,3.45
2022-08-07T19:23:58.355Z,4.53
2022-08-07T19:27:02.019Z,3.85
2022-08-07T19:30:56.747Z,4.97
2022-08-07T19:32:28.830Z,4.32
2022-08-07T19:35:06.746Z,4.32
2022-08-07T19:37:57.308Z,3.72
2022-08-07T19:40:31.040Z,4.05
2022-08-07T19:43:02.661Z,4.57
2022-08-07T19:46:06.204Z,4.55
2022-08-07T19:48:31.338Z,4.68
2022-08-07T19:51:20.522Z,4.53
2022-08-07T19:54:35.745Z,4.97
2022-08-07T19:57:51.849Z,5.38
2022-08-07T19:59:40.858Z,5.38
2022-08-07T20:02:19.311Z,5.32
2022-08-07T20:04:53.614Z,5.82
2022-08-07T20:07:46.662Z,5.32
2022-08-07T20:10:36.282Z,5.45
2022-08-07T20:13:22.827Z,4.93
2022-08-07T20:15:54.006Z,4.90
2022-08-07T20:18:32.634Z,5.90
2022-08-07T20:21:22.131Z,4.60
2022-08-07T20:23:54.968Z,5.13
2022-08-07T20:26:32.513Z,5.90
2022-08-07T20:29:47.093Z,5.90
2022-08-07T20:32:01.044Z,5.28
2022-08-07T20:34:49.666Z,6.00
2022-08-07T20:37:25.990Z,4.80
2022-08-07T20:40:02.652Z,5.80
2022-08-07T20:42:33.419Z,6.20
2022-08-07T20:45:01.983Z,5.55
2022-08-07T20:47:56.659Z,7.95
2022-08-07T20:50:23.386Z,8.32
2022-08-07T20:52:53.912Z,10.82
2022-08-07T20:55:23.677Z,11.48
2022-08-07T20:58:03.440Z,11.02
2022-08-07T21:00:44.178Z,11.63
2022-08-07T21:03:15.062Z,12.15
2022-08-07T21:05:54.871Z,11.07
2022-08-07T21:08:36.911Z,9.70
2022-08-07T21:11:10.487Z,11.73
2022-08-07T21:13:43.839Z,11.30
2022-08-07T21:16:31.380Z,8.68
2022-08-07T21:19:01.087Z,11.07
2022-08-07T21:21:33.237Z,9.50
2022-08-07T21:24:30.618Z,10.13
2022-08-07T21:27:06.841Z,10.48
2022-08-07T21:29:47.132Z,10.55
2022-08-07T21:32:46.733Z,11.95
2022-08-07T21:36:00.103Z,13.07
2022-08-07T21:38:13.317Z,12.32
2022-08-07T21:40:49.448Z,10.50
2022-08-07T21:43:22.906Z,11.02
2022-08-07T21:46:08.713Z,10.40
2022-08-07T21:48:55.843Z,9.85
2022-08-07T21:51:34.638Z,9.75
2022-08-07T21:54:25.569Z,8.18
2022-08-07T21:57:16.143Z,7.50
2022-08-07T22:00:04.837Z,9.18
2022-08-07T22:02:41.523Z,8.40
2022-08-07T22:05:22.204Z,9.32
2022-08-07T22:08:02.340Z,9.13
2022-08-07T22:10:35.617Z,8.05
2022-08-07T22:13:12.548Z,8.85
2022-08-07T22:16:45.608Z,9.70
2022-08-07T22:18:39.432Z,8.85
2022-08-07T22:21:15.712Z,9.05
2022-08-07T22:23:53.725Z,8.38
2022-08-07T22:26:24.993Z,9.57
2022-08-07T22:29:04.683Z,9.50
2022-08-07T22:32:00.305Z,10.05
2022-08-07T22:34:52.965Z,9.43
2022-08-07T22:38:04.225Z,6.53
2022-08-07T22:40:25.858Z,9.00
2022-08-07T22:43:02.660Z,8.43
2022-08-07T22:46:21.847Z,8.00
2022-08-07T22:48:55.630Z,6.78
2022-08-07T22:51:49.369Z,7.25
2022-08-07T22:54:48.921Z,8.60
2022-08-07T22:57:41.135Z,8.57
2022-08-07T23:00:14.159Z,8.10
2022-08-07T23:02:55.355Z,8.07
2022-08-07T23:06:08.221Z,7.70
2022-08-07T23:08:46.764Z,7.85
2022-08-07T23:11:35.013Z,7.25
2022-08-07T23:14:25.160Z,7.35
2022-08-07T23:17:26.792Z,6.70
2022-08-07T23:20:51.157Z,6.43
2022-08-07T23:24:06.297Z,6.07
2022-08-07T23:26:26.058Z,6.88
2022-08-07T23:29:43.168Z,6.72
2022-08-07T23:34:21.412Z,7.20
2022-08-07T23:35:39.948Z,6.07
2022-08-07T23:38:19.423Z,5.88
2022-08-07T23:41:22.466Z,6.00
2022-08-07T23:44:17.652Z,5.85
2022-08-07T23:47:13.168Z,4.47
2022-08-07T23:50:27.768Z,4.70
2022-08-07T23:53:17.401Z,4.32
2022-08-07T23:55:56.320Z,3.45
2022-08-07T23:58:49.858Z,3.80
